createdAt,value
2017-01-23T00:00:04.154Z,0
2017-01-23T00:00:52.764Z,0
2017-01-23T00:01:41.140Z,0
2017-01-23T00:02:29.793Z,0
2017-01-23T00:03:18.721Z,0
2017-01-23T00:04:07.174Z,0
2017-01-23T00:04:55.707Z,0
2017-01-23T00:05:44.785Z,0
2017-01-23T00:06:33.712Z,0
2017-01-23T00:07:22.597Z,0
2017-01-23T00:08:10.892Z,0
2017-01-23T00:09:00.388Z,0
2017-01-23T00:09:41.955Z,0
2017-01-23T00:10:22.493Z,0
2017-01-23T00:11:02.915Z,0
2017-01-23T00:11:44.251Z,0
2017-01-23T00:12:24.748Z,0
2017-01-23T00:13:05.232Z,0
2017-01-23T00:13:45.732Z,0
2017-01-23T00:14:26.255Z,0
2017-01-23T00:15:06.787Z,0
2017-01-23T00:15:47.185Z,0
2017-01-23T00:16:27.643Z,0
2017-01-23T00:17:08.167Z,0
2017-01-23T00:17:48.649Z,0
2017-01-23T00:18:30.067Z,0
2017-01-23T00:19:10.550Z,0
2017-01-23T00:19:51.957Z,0
2017-01-23T00:20:32.438Z,0
2017-01-23T00:21:12.968Z,0
2017-01-23T00:21:53.434Z,0
2017-01-23T00:22:33.970Z,0
2017-01-23T00:23:14.459Z,0
2017-01-23T00:23:54.998Z,0
2017-01-23T00:24:36.278Z,0
2017-01-23T00:25:16.795Z,0
2017-01-23T00:25:57.822Z,0
2017-01-23T00:26:38.241Z,0
2017-01-23T00:27:18.754Z,0
2017-01-23T00:27:59.242Z,0
2017-01-23T00:28:40.607Z,0
2017-01-23T00:29:21.051Z,0
2017-01-23T00:30:01.538Z,0
2017-01-23T00:30:42.623Z,0
2017-01-23T00:31:23.118Z,0
2017-01-23T00:32:03.588Z,0
2017-01-23T00:32:44.071Z,0
2017-01-23T00:33:24.580Z,0
2017-01-23T00:34:05.119Z,0
2017-01-23T00:34:45.534Z,0
2017-01-23T00:35:27.621Z,0
2017-01-23T00:36:08.218Z,0
2017-01-23T00:36:48.662Z,0
2017-01-23T00:37:29.846Z,0
2017-01-23T00:38:10.306Z,0
2017-01-23T00:38:50.921Z,0
2017-01-23T00:39:32.181Z,0
2017-01-23T00:40:13.662Z,0
2017-01-23T00:40:54.201Z,0
2017-01-23T00:41:34.621Z,0
2017-01-23T00:42:15.116Z,0
2017-01-23T00:42:55.649Z,0
2017-01-23T00:43:36.173Z,0
2017-01-23T00:44:16.675Z,0
2017-01-23T00:44:58.861Z,0
2017-01-23T00:45:39.299Z,0
2017-01-23T00:46:19.832Z,0
2017-01-23T00:47:00.874Z,0
2017-01-23T00:47:41.368Z,0
2017-01-23T00:48:21.885Z,0
2017-01-23T00:49:02.412Z,0
2017-01-23T00:49:43.791Z,0
2017-01-23T00:50:24.279Z,0
2017-01-23T00:51:04.792Z,0
2017-01-23T00:51:45.367Z,0
2017-01-23T00:52:25.840Z,0
2017-01-23T00:53:06.321Z,0
2017-01-23T00:53:46.910Z,0
2017-01-23T00:54:27.370Z,0
2017-01-23T00:55:07.973Z,0
2017-01-23T00:55:48.375Z,0
2017-01-23T00:56:28.900Z,0
2017-01-23T00:57:09.406Z,0
2017-01-23T00:57:49.876Z,0
2017-01-23T00:58:30.357Z,0
2017-01-23T00:59:12.398Z,0
2017-01-23T00:59:52.886Z,0
2017-01-23T01:00:33.355Z,0
2017-01-23T01:01:13.853Z,0
2017-01-23T01:01:54.320Z,0
2017-01-23T01:02:34.892Z,0
2017-01-23T01:03:15.391Z,0
2017-01-23T01:03:55.855Z,0
2017-01-23T01:04:37.061Z,0
2017-01-23T01:05:17.532Z,0
2017-01-23T01:05:58.081Z,0
2017-01-23T01:06:38.566Z,0
2017-01-23T01:07:19.111Z,0
2017-01-23T01:07:59.611Z,0
2017-01-23T01:08:40.086Z,0
2017-01-23T01:09:20.616Z,0
2017-01-23T01:10:01.149Z,0
2017-01-23T01:10:41.642Z,0
2017-01-23T01:11:22.119Z,0
2017-01-23T01:12:02.630Z,0
2017-01-23T01:12:43.158Z,0
2017-01-23T01:13:23.630Z,0
2017-01-23T01:14:04.634Z,0
2017-01-23T01:14:45.173Z,0
2017-01-23T01:15:25.565Z,0
2017-01-23T01:16:06.106Z,0
2017-01-23T01:16:46.570Z,0
2017-01-23T01:17:27.072Z,0
2017-01-23T01:18:07.522Z,0
2017-01-23T01:18:48.093Z,0
2017-01-23T01:19:28.497Z,0
2017-01-23T01:20:09.011Z,0
2017-01-23T01:20:49.466Z,0
2017-01-23T01:21:29.966Z,0
2017-01-23T01:22:10.457Z,0
2017-01-23T01:22:51.029Z,0
2017-01-23T01:23:31.566Z,0
2017-01-23T01:24:12.029Z,0
2017-01-23T01:24:52.487Z,0
2017-01-23T01:25:33.921Z,0
2017-01-23T01:26:14.358Z,0
2017-01-23T01:26:54.837Z,0
2017-01-23T01:27:35.372Z,0
2017-01-23T01:28:15.877Z,0
2017-01-23T01:28:56.303Z,0
2017-01-23T01:29:36.915Z,0
2017-01-23T01:30:17.361Z,0
2017-01-23T01:30:58.578Z,0
2017-01-23T01:31:39.083Z,0
2017-01-23T01:32:19.550Z,0
2017-01-23T01:33:00.036Z,0
2017-01-23T01:33:40.561Z,0
2017-01-23T01:34:21.040Z,0
2017-01-23T01:35:02.358Z,0
2017-01-23T01:35:42.886Z,0
2017-01-23T01:36:23.339Z,0
2017-01-23T01:37:04.753Z,0
2017-01-23T01:37:45.226Z,0
2017-01-23T01:38:25.745Z,0
2017-01-23T01:39:06.286Z,0
2017-01-23T01:39:46.731Z,0
2017-01-23T01:40:27.217Z,0
2017-01-23T01:41:08.659Z,0
2017-01-23T01:41:49.182Z,0
2017-01-23T01:42:30.363Z,0
2017-01-23T01:43:10.887Z,0
2017-01-23T01:43:51.353Z,0
2017-01-23T01:44:31.845Z,0
2017-01-23T01:45:12.361Z,0
2017-01-23T01:45:52.843Z,0
2017-01-23T01:46:34.872Z,0
2017-01-23T01:47:15.343Z,0
2017-01-23T01:47:55.826Z,0
2017-01-23T01:48:37.059Z,0
2017-01-23T01:49:17.532Z,0
2017-01-23T01:49:58.078Z,0
2017-01-23T01:50:38.576Z,0
2017-01-23T01:51:19.064Z,0
2017-01-23T01:51:59.553Z,0
2017-01-23T01:52:40.055Z,0
2017-01-23T01:53:20.527Z,0
2017-01-23T01:54:01.042Z,0
2017-01-23T01:54:41.460Z,0
2017-01-23T01:55:21.928Z,0
2017-01-23T01:56:02.431Z,0
2017-01-23T01:56:43.025Z,0
2017-01-23T01:57:23.543Z,0
2017-01-23T01:58:04.065Z,0
2017-01-23T01:58:44.699Z,0
2017-01-23T01:59:25.173Z,0
2017-01-23T02:00:05.703Z,0
2017-01-23T02:00:46.198Z,0
2017-01-23T02:01:26.762Z,0
2017-01-23T02:02:07.219Z,0
2017-01-23T02:02:47.684Z,0
2017-01-23T02:03:28.345Z,0
2017-01-23T02:04:08.825Z,0
2017-01-23T02:04:49.342Z,0
2017-01-23T02:05:30.815Z,0
2017-01-23T02:06:11.255Z,0
2017-01-23T02:06:51.777Z,0
2017-01-23T02:07:32.230Z,0
2017-01-23T02:08:14.655Z,0
2017-01-23T02:08:55.107Z,0
2017-01-23T02:09:35.586Z,0
2017-01-23T02:10:16.118Z,0
2017-01-23T02:10:56.603Z,0
2017-01-23T02:11:37.099Z,0
2017-01-23T02:12:18.113Z,0
2017-01-23T02:12:58.564Z,0
2017-01-23T02:13:39.613Z,0
2017-01-23T02:14:20.088Z,0
2017-01-23T02:15:01.486Z,0
2017-01-23T02:15:41.970Z,0
2017-01-23T02:16:22.484Z,0
2017-01-23T02:17:02.963Z,0
2017-01-23T02:17:43.427Z,0
2017-01-23T02:18:24.551Z,0
2017-01-23T02:19:05.048Z,0
2017-01-23T02:19:47.508Z,0
2017-01-23T02:20:27.981Z,0
2017-01-23T02:21:08.511Z,0
2017-01-23T02:21:48.951Z,0
2017-01-23T02:22:29.720Z,0
2017-01-23T02:23:11.181Z,0
2017-01-23T02:23:51.619Z,0
2017-01-23T02:24:32.082Z,0
2017-01-23T02:25:13.470Z,0
2017-01-23T02:25:53.917Z,0
2017-01-23T02:26:34.408Z,0
2017-01-23T02:27:14.919Z,0
2017-01-23T02:27:55.384Z,0
2017-01-23T02:28:35.937Z,0
2017-01-23T02:29:16.443Z,0
2017-01-23T02:29:56.881Z,0
2017-01-23T02:30:39.153Z,0
2017-01-23T02:31:19.667Z,0
2017-01-23T02:32:00.124Z,0
2017-01-23T02:32:41.451Z,0
2017-01-23T02:33:22.131Z,0
2017-01-23T02:34:02.597Z,0
2017-01-23T02:34:44.642Z,0
2017-01-23T02:35:25.174Z,0
2017-01-23T02:36:05.637Z,0
2017-01-23T02:36:46.120Z,0
2017-01-23T02:37:26.647Z,0
2017-01-23T02:38:07.149Z,0
2017-01-23T02:38:47.706Z,0
2017-01-23T02:39:28.233Z,0
2017-01-23T02:40:08.678Z,0
2017-01-23T02:40:49.898Z,0
2017-01-23T02:41:30.961Z,0
2017-01-23T02:42:11.540Z,0
2017-01-23T02:42:51.933Z,0
2017-01-23T02:43:32.483Z,0
2017-01-23T02:44:13.546Z,0
2017-01-23T02:44:54.026Z,0
2017-01-23T02:45:34.547Z,0
2017-01-23T02:46:15.059Z,0
2017-01-23T02:46:55.548Z,0
2017-01-23T02:47:36.021Z,0
2017-01-23T02:48:17.264Z,0
2017-01-23T02:48:57.721Z,0
2017-01-23T02:49:38.991Z,0
2017-01-23T02:50:19.493Z,0
2017-01-23T02:51:00.002Z,0
2017-01-23T02:51:40.489Z,0
2017-01-23T02:52:21.062Z,0
2017-01-23T02:53:01.474Z,0
2017-01-23T02:53:41.998Z,0
2017-01-23T02:54:23.431Z,0
2017-01-23T02:55:04.926Z,0
2017-01-23T02:55:45.917Z,0
2017-01-23T02:56:26.449Z,0
2017-01-23T02:57:07.595Z,0
2017-01-23T02:57:48.137Z,0
2017-01-23T02:58:28.645Z,0
2017-01-23T02:59:09.137Z,0
2017-01-23T02:59:50.631Z,0
2017-01-23T03:00:31.095Z,0
2017-01-23T03:01:11.715Z,0
2017-01-23T03:01:52.204Z,0
2017-01-23T03:02:32.738Z,0
2017-01-23T03:03:13.235Z,0
2017-01-23T03:03:54.777Z,0
2017-01-23T03:04:35.291Z,0
2017-01-23T03:05:15.772Z,0
2017-01-23T03:05:56.232Z,0
2017-01-23T03:06:37.375Z,0
2017-01-23T03:07:17.918Z,0
2017-01-23T03:07:58.423Z,0
2017-01-23T03:08:38.899Z,0
2017-01-23T03:09:19.425Z,0
2017-01-23T03:10:00.633Z,0
2017-01-23T03:10:41.108Z,0
2017-01-23T03:11:21.590Z,0
2017-01-23T03:12:02.115Z,0
2017-01-23T03:12:42.558Z,0
2017-01-23T03:13:23.078Z,0
2017-01-23T03:14:04.543Z,0
2017-01-23T03:14:45.027Z,0
2017-01-23T03:15:25.586Z,0
2017-01-23T03:16:06.744Z,0
2017-01-23T03:16:47.262Z,0
2017-01-23T03:17:27.771Z,0
2017-01-23T03:18:08.253Z,0
2017-01-23T03:18:48.742Z,0
2017-01-23T03:19:29.893Z,0
2017-01-23T03:20:10.357Z,0
2017-01-23T03:20:50.845Z,0
2017-01-23T03:21:31.325Z,0
2017-01-23T03:22:11.809Z,0
2017-01-23T03:22:53.084Z,0
2017-01-23T03:23:33.511Z,0
2017-01-23T03:24:14.038Z,0
2017-01-23T03:24:54.521Z,0
2017-01-23T03:25:35.616Z,0
2017-01-23T03:26:16.164Z,0
2017-01-23T03:26:56.644Z,0
2017-01-23T03:27:37.710Z,0
2017-01-23T03:28:18.238Z,0
2017-01-23T03:28:58.734Z,0
2017-01-23T03:29:39.241Z,0
2017-01-23T03:30:19.736Z,0
2017-01-23T03:31:00.194Z,0
2017-01-23T03:31:40.678Z,0
2017-01-23T03:32:21.184Z,0
2017-01-23T03:33:01.699Z,0
2017-01-23T03:33:42.236Z,0
2017-01-23T03:34:22.735Z,0
2017-01-23T03:35:03.800Z,0
2017-01-23T03:35:44.326Z,0
2017-01-23T03:36:24.814Z,0
2017-01-23T03:37:05.310Z,0
2017-01-23T03:37:45.743Z,0
2017-01-23T03:38:26.339Z,0
2017-01-23T03:39:07.429Z,0
2017-01-23T03:39:47.934Z,0
2017-01-23T03:40:28.487Z,0
2017-01-23T03:41:08.958Z,0
2017-01-23T03:41:49.504Z,0
2017-01-23T03:42:29.979Z,0
2017-01-23T03:43:10.487Z,0
2017-01-23T03:43:50.963Z,0
2017-01-23T03:44:31.437Z,0
2017-01-23T03:45:11.952Z,0
2017-01-23T03:45:53.408Z,0
2017-01-23T03:46:33.895Z,0
2017-01-23T03:47:15.094Z,0
2017-01-23T03:47:55.572Z,0
2017-01-23T03:48:36.003Z,0
2017-01-23T03:49:16.492Z,0
2017-01-23T03:49:57.008Z,0
2017-01-23T03:50:37.495Z,0
2017-01-23T03:51:17.990Z,0
2017-01-23T03:51:58.480Z,0
2017-01-23T03:52:38.969Z,0
2017-01-23T03:53:19.479Z,0
2017-01-23T03:53:59.919Z,0
2017-01-23T03:54:40.481Z,0
2017-01-23T03:55:21.999Z,0
2017-01-23T03:56:02.446Z,0
2017-01-23T03:56:44.520Z,0
2017-01-23T03:57:25.927Z,0
2017-01-23T03:58:06.438Z,0
2017-01-23T03:58:46.891Z,0
2017-01-23T03:59:27.321Z,0
2017-01-23T04:00:07.841Z,0
2017-01-23T04:00:49.046Z,0
2017-01-23T04:01:29.488Z,0
2017-01-23T04:02:10.019Z,0
2017-01-23T04:02:50.471Z,0
2017-01-23T04:03:30.987Z,0
2017-01-23T04:04:11.452Z,0
2017-01-23T04:04:51.917Z,0
2017-01-23T04:05:36.041Z,0
2017-01-23T04:06:16.564Z,0
2017-01-23T04:06:57.663Z,0
2017-01-23T04:07:38.099Z,0
2017-01-23T04:08:18.628Z,0
2017-01-23T04:08:59.205Z,0
2017-01-23T04:09:39.678Z,0
2017-01-23T04:10:20.275Z,0
2017-01-23T04:11:02.266Z,0
2017-01-23T04:11:42.827Z,0
2017-01-23T04:12:23.950Z,0
2017-01-23T04:13:04.397Z,0
2017-01-23T04:13:44.929Z,0
2017-01-23T04:14:26.081Z,0
2017-01-23T04:15:06.517Z,0
2017-01-23T04:15:47.002Z,0
2017-01-23T04:16:29.124Z,0
2017-01-23T04:17:09.579Z,0
2017-01-23T04:17:50.075Z,0
2017-01-23T04:18:30.530Z,0
2017-01-23T04:19:11.056Z,0
2017-01-23T04:19:51.504Z,0
2017-01-23T04:20:32.007Z,0
2017-01-23T04:21:12.452Z,0
2017-01-23T04:21:52.952Z,0
2017-01-23T04:22:33.495Z,0
2017-01-23T04:23:13.943Z,0
2017-01-23T04:23:54.925Z,0
2017-01-23T04:24:36.253Z,0
2017-01-23T04:25:16.744Z,0
2017-01-23T04:25:58.207Z,0
2017-01-23T04:26:38.664Z,0
2017-01-23T04:27:19.161Z,0
2017-01-23T04:28:00.130Z,0
2017-01-23T04:28:40.648Z,0
2017-01-23T04:29:21.131Z,0
2017-01-23T04:30:01.586Z,0
2017-01-23T04:30:42.088Z,0
2017-01-23T04:31:22.579Z,0
2017-01-23T04:32:03.051Z,0
2017-01-23T04:32:43.588Z,0
2017-01-23T04:33:24.062Z,0
2017-01-23T04:34:04.521Z,0
2017-01-23T04:34:44.960Z,0
2017-01-23T04:35:25.495Z,0
2017-01-23T04:36:05.913Z,0
2017-01-23T04:36:46.433Z,0
2017-01-23T04:37:26.914Z,0
2017-01-23T04:38:08.410Z,0
2017-01-23T04:38:48.944Z,0
2017-01-23T04:39:29.401Z,0
2017-01-23T04:40:09.942Z,0
2017-01-23T04:40:50.448Z,0
2017-01-23T04:41:30.939Z,0
2017-01-23T04:42:11.509Z,0
2017-01-23T04:42:52.457Z,0
2017-01-23T04:43:33.749Z,0
2017-01-23T04:44:14.206Z,0
2017-01-23T04:44:55.366Z,0
2017-01-23T04:45:36.382Z,0
2017-01-23T04:46:18.066Z,0
2017-01-23T04:46:58.569Z,0
2017-01-23T04:47:39.069Z,0
2017-01-23T04:48:19.575Z,0
2017-01-23T04:49:00.046Z,0
2017-01-23T04:49:40.574Z,0
2017-01-23T04:50:21.149Z,0
2017-01-23T04:51:01.630Z,0
2017-01-23T04:51:42.085Z,0
2017-01-23T04:52:24.247Z,0
2017-01-23T04:53:06.550Z,0
2017-01-23T04:53:46.996Z,0
2017-01-23T04:54:28.453Z,0
2017-01-23T04:55:09.977Z,0
2017-01-23T04:55:51.256Z,0
2017-01-23T04:56:31.777Z,0
2017-01-23T04:57:12.250Z,0
2017-01-23T04:57:52.734Z,0
2017-01-23T04:58:33.253Z,0
2017-01-23T04:59:13.768Z,0
2017-01-23T04:59:54.251Z,0
2017-01-23T05:00:34.784Z,0
2017-01-23T05:01:15.306Z,0
2017-01-23T05:01:56.447Z,0
2017-01-23T05:02:36.960Z,0
2017-01-23T05:03:17.364Z,0
2017-01-23T05:03:57.920Z,0
2017-01-23T05:04:39.378Z,0
2017-01-23T05:05:19.877Z,0
2017-01-23T05:06:01.054Z,0
2017-01-23T05:06:43.449Z,0
2017-01-23T05:07:24.012Z,0
2017-01-23T05:08:04.548Z,0
2017-01-23T05:08:45.124Z,0
2017-01-23T05:09:25.657Z,0
2017-01-23T05:10:06.203Z,0
2017-01-23T05:10:46.691Z,0
2017-01-23T05:11:28.128Z,0
2017-01-23T05:12:08.589Z,0
2017-01-23T05:12:49.099Z,0
2017-01-23T05:13:29.548Z,0
2017-01-23T05:14:10.073Z,0
2017-01-23T05:14:51.321Z,0
2017-01-23T05:15:31.835Z,0
2017-01-23T05:16:12.363Z,0
2017-01-23T05:16:52.889Z,0
2017-01-23T05:17:33.433Z,0
2017-01-23T05:18:13.930Z,0
2017-01-23T05:18:54.429Z,0
2017-01-23T05:19:35.007Z,0
2017-01-23T05:20:15.511Z,0
2017-01-23T05:20:56.082Z,0
2017-01-23T05:21:36.616Z,0
2017-01-23T05:22:17.062Z,0
2017-01-23T05:22:57.566Z,0
2017-01-23T05:23:38.171Z,0
2017-01-23T05:24:18.577Z,0
2017-01-23T05:24:59.145Z,0
2017-01-23T05:25:39.626Z,0
2017-01-23T05:26:20.134Z,0
2017-01-23T05:27:02.037Z,0
2017-01-23T05:27:42.507Z,0
2017-01-23T05:28:23.001Z,0
2017-01-23T05:29:03.699Z,0
2017-01-23T05:29:44.223Z,0
2017-01-23T05:30:24.716Z,0
2017-01-23T05:31:05.473Z,0
2017-01-23T05:31:45.948Z,0
2017-01-23T05:32:26.828Z,0
2017-01-23T05:33:07.278Z,0
2017-01-23T05:33:47.819Z,0
2017-01-23T05:34:28.317Z,0
2017-01-23T05:35:08.794Z,0
2017-01-23T05:35:49.325Z,0
2017-01-23T05:36:29.818Z,0
2017-01-23T05:37:10.302Z,0
2017-01-23T05:37:50.813Z,0
2017-01-23T05:38:31.354Z,0
2017-01-23T05:39:11.785Z,0
2017-01-23T05:39:52.298Z,0
2017-01-23T05:40:32.792Z,0
2017-01-23T05:41:13.278Z,0
2017-01-23T05:41:53.768Z,0
2017-01-23T05:42:34.307Z,0
2017-01-23T05:43:14.730Z,0
2017-01-23T05:43:55.208Z,0
2017-01-23T05:44:35.722Z,0
2017-01-23T05:45:16.174Z,0
2017-01-23T05:45:56.650Z,0
2017-01-23T05:46:37.152Z,0
2017-01-23T05:47:17.703Z,0
2017-01-23T05:47:58.295Z,0
2017-01-23T05:48:38.772Z,0
2017-01-23T05:49:19.252Z,0
2017-01-23T05:49:59.738Z,0
2017-01-23T05:50:40.223Z,0
2017-01-23T05:51:20.722Z,0
2017-01-23T05:52:01.204Z,0
2017-01-23T05:52:41.698Z,0
2017-01-23T05:53:22.185Z,0
2017-01-23T05:54:02.687Z,0
2017-01-23T05:54:43.150Z,0
2017-01-23T05:55:23.648Z,0
2017-01-23T05:56:04.142Z,0
2017-01-23T05:56:44.650Z,0
2017-01-23T05:57:25.112Z,0
2017-01-23T05:58:05.610Z,0
2017-01-23T05:58:46.107Z,0
2017-01-23T05:59:26.862Z,0
2017-01-23T06:00:07.289Z,0
2017-01-23T06:00:47.749Z,0
2017-01-23T06:01:28.289Z,0
2017-01-23T06:02:08.790Z,0
2017-01-23T06:02:49.228Z,0
2017-01-23T06:03:29.745Z,0
2017-01-23T06:04:10.232Z,0
2017-01-23T06:04:50.736Z,0
2017-01-23T06:05:31.210Z,0
2017-01-23T06:06:11.697Z,0
2017-01-23T06:06:52.199Z,0
2017-01-23T06:07:32.707Z,0
2017-01-23T06:08:13.254Z,0
2017-01-23T06:08:53.779Z,0
2017-01-23T06:09:34.220Z,0
2017-01-23T06:10:14.696Z,0
2017-01-23T06:10:55.194Z,0
2017-01-23T06:11:35.685Z,0
2017-01-23T06:12:16.200Z,0
2017-01-23T06:12:56.660Z,0
2017-01-23T06:13:37.179Z,0
2017-01-23T06:14:17.644Z,0
2017-01-23T06:14:58.157Z,0
2017-01-23T06:15:38.588Z,0
2017-01-23T06:16:19.113Z,0
2017-01-23T06:16:59.932Z,0
2017-01-23T06:17:40.761Z,0
2017-01-23T06:18:21.495Z,0
2017-01-23T06:19:02.689Z,0
2017-01-23T06:19:43.322Z,0
2017-01-23T06:20:23.906Z,0
2017-01-23T06:21:05.599Z,0
2017-01-23T06:21:46.070Z,0
2017-01-23T06:22:26.559Z,0
2017-01-23T06:23:07.044Z,0
2017-01-23T06:23:48.316Z,0
2017-01-23T06:24:28.783Z,0
2017-01-23T06:25:10.602Z,0
2017-01-23T06:25:51.114Z,0
2017-01-23T06:26:31.553Z,0
2017-01-23T06:27:12.589Z,0
2017-01-23T06:27:53.227Z,0
2017-01-23T06:28:36.519Z,0
2017-01-23T06:29:19.515Z,0
2017-01-23T06:29:59.989Z,0
2017-01-23T06:30:41.240Z,0
2017-01-23T06:31:21.752Z,0
2017-01-23T06:32:02.204Z,0
2017-01-23T06:32:42.702Z,0
2017-01-23T06:33:23.233Z,0
2017-01-23T06:34:04.409Z,0
2017-01-23T06:34:44.909Z,0
2017-01-23T06:35:26.027Z,0
2017-01-23T06:36:08.329Z,0
2017-01-23T06:36:49.329Z,0
2017-01-23T06:37:29.862Z,0
2017-01-23T06:38:11.117Z,0
2017-01-23T06:38:53.269Z,0
2017-01-23T06:39:33.838Z,0
2017-01-23T06:40:15.090Z,0
2017-01-23T06:40:57.385Z,0
2017-01-23T06:41:37.825Z,0
2017-01-23T06:42:18.406Z,4
2017-01-23T06:42:58.894Z,4
2017-01-23T06:43:41.473Z,4
2017-01-23T06:44:22.324Z,4
2017-01-23T06:45:02.904Z,8
2017-01-23T06:45:43.583Z,8
2017-01-23T06:46:24.109Z,8
2017-01-23T06:47:04.541Z,4
2017-01-23T06:47:45.039Z,4
2017-01-23T06:48:25.894Z,4
2017-01-23T06:49:06.929Z,4
2017-01-23T06:49:47.506Z,4
2017-01-23T06:50:28.215Z,8
2017-01-23T06:51:09.137Z,8
2017-01-23T06:51:49.645Z,4
2017-01-23T06:52:30.363Z,4
2017-01-23T06:53:10.844Z,8
2017-01-23T06:53:53.698Z,8
2017-01-23T06:54:34.268Z,8
2017-01-23T06:55:16.589Z,8
2017-01-23T06:55:56.978Z,8
2017-01-23T06:56:37.686Z,8
2017-01-23T06:57:18.326Z,8
2017-01-23T06:57:58.891Z,12
2017-01-23T06:58:39.525Z,8
2017-01-23T06:59:20.033Z,12
2017-01-23T07:00:00.574Z,8
2017-01-23T07:00:41.147Z,12
2017-01-23T07:01:21.748Z,12
2017-01-23T07:02:02.234Z,12
2017-01-23T07:02:42.884Z,12
2017-01-23T07:03:23.421Z,16
2017-01-23T07:04:04.378Z,16
2017-01-23T07:04:44.914Z,16
2017-01-23T07:05:25.411Z,20
2017-01-23T07:06:06.103Z,20
2017-01-23T07:06:46.440Z,24
2017-01-23T07:07:26.985Z,24
2017-01-23T07:08:07.636Z,28
2017-01-23T07:08:48.127Z,28
2017-01-23T07:09:28.887Z,32
2017-01-23T07:10:09.513Z,36
2017-01-23T07:10:50.094Z,40
2017-01-23T07:11:30.765Z,44
2017-01-23T07:12:11.214Z,44
2017-01-23T07:12:51.948Z,48
2017-01-23T07:13:32.737Z,56
2017-01-23T07:14:13.475Z,60
2017-01-23T07:14:54.121Z,64
2017-01-23T07:15:34.796Z,72
2017-01-23T07:16:15.348Z,76
2017-01-23T07:16:55.784Z,84
2017-01-23T07:17:36.391Z,88
2017-01-23T07:18:16.739Z,96
2017-01-23T07:18:58.350Z,104
2017-01-23T07:19:39.168Z,112
2017-01-23T07:20:20.410Z,120
2017-01-23T07:21:01.012Z,132
2017-01-23T07:23:28.965Z,168
2017-01-23T07:24:18.050Z,176
2017-01-23T07:25:06.339Z,192
2017-01-23T07:25:55.216Z,204
2017-01-23T07:26:44.258Z,216
2017-01-23T07:27:32.479Z,228
2017-01-23T07:28:21.386Z,248
2017-01-23T07:29:09.861Z,268
2017-01-23T07:29:58.940Z,288
2017-01-23T07:30:47.677Z,304
2017-01-23T07:31:36.309Z,328
2017-01-23T07:32:25.027Z,344
2017-01-23T07:33:13.794Z,360
2017-01-23T07:34:03.373Z,380
2017-01-23T07:34:51.815Z,400
2017-01-23T07:35:40.779Z,416
2017-01-23T07:36:29.369Z,436
2017-01-23T07:37:17.327Z,456
2017-01-23T07:39:48.867Z,536
2017-01-23T07:42:09.677Z,628
2017-01-23T07:42:54.607Z,656
2017-01-23T07:43:35.055Z,680
2017-01-23T07:44:15.584Z,704
2017-01-23T07:44:56.067Z,724
2017-01-23T07:45:36.539Z,740
2017-01-23T07:46:19.351Z,764
2017-01-23T07:47:01.376Z,780
2017-01-23T07:47:44.792Z,804
2017-01-23T07:48:29.886Z,832
2017-01-23T07:49:17.773Z,860
2017-01-23T07:50:04.854Z,884
2017-01-23T07:50:50.155Z,908
2017-01-23T07:51:31.497Z,928
2017-01-23T07:52:11.996Z,952
2017-01-23T07:52:52.549Z,968
2017-01-23T07:53:40.604Z,988
2017-01-23T07:54:21.598Z,996
2017-01-23T07:55:03.785Z,1004
2017-01-23T07:55:46.204Z,1004
2017-01-23T07:56:28.988Z,1008
2017-01-23T07:57:11.875Z,1008
2017-01-23T07:57:52.364Z,1016
2017-01-23T07:58:32.876Z,1028
2017-01-23T07:59:14.903Z,1032
2017-01-23T07:59:58.294Z,1048
2017-01-23T08:00:39.514Z,1068
2017-01-23T08:01:25.437Z,1092
2017-01-23T08:02:14.848Z,1120
2017-01-23T08:02:55.323Z,1128
2017-01-23T08:03:35.831Z,1136
2017-01-23T08:04:16.332Z,1132
2017-01-23T08:04:58.657Z,1132
2017-01-23T08:05:38.742Z,1140
2017-01-23T08:06:19.703Z,1160
2017-01-23T08:07:00.722Z,1192
2017-01-23T08:07:42.080Z,1228
2017-01-23T08:08:26.360Z,1264
2017-01-23T08:09:13.401Z,1296
2017-01-23T08:09:55.420Z,1324
2017-01-23T08:10:37.774Z,1352
2017-01-23T08:11:18.277Z,1380
2017-01-23T08:11:59.808Z,1404
2017-01-23T08:12:41.096Z,1440
2017-01-23T08:13:21.563Z,1476
2017-01-23T08:14:02.053Z,1508
2017-01-23T08:14:42.579Z,1544
2017-01-23T08:15:23.056Z,1580
2017-01-23T08:16:03.558Z,1616
2017-01-23T08:16:46.936Z,1660
2017-01-23T08:17:27.449Z,1696
2017-01-23T08:18:08.049Z,1732
2017-01-23T08:18:48.585Z,1772
2017-01-23T08:19:29.092Z,1816
2017-01-23T08:20:09.649Z,1860
2017-01-23T08:20:50.794Z,1904
2017-01-23T08:21:31.354Z,1940
2017-01-23T08:22:11.948Z,1980
2017-01-23T08:22:52.449Z,2012
2017-01-23T08:23:33.960Z,2032
2017-01-23T08:24:15.830Z,2048
2017-01-23T08:24:56.278Z,2060
2017-01-23T08:25:37.425Z,2084
2017-01-23T08:26:18.801Z,2112
2017-01-23T08:26:59.326Z,2136
2017-01-23T08:27:54.182Z,2160
2017-01-23T08:28:41.833Z,2180
2017-01-23T08:31:29.000Z,2188
2017-01-23T08:32:22.030Z,2188
2017-01-23T08:33:11.000Z,2184
2017-01-23T08:34:00.460Z,2184
2017-01-23T08:34:52.482Z,2208
2017-01-23T08:35:44.493Z,2252
2017-01-23T08:36:36.684Z,2308
2017-01-23T08:37:36.591Z,2356
2017-01-23T08:38:22.551Z,2392
2017-01-23T08:39:08.460Z,2424
2017-01-23T08:39:56.462Z,2476
2017-01-23T08:40:45.483Z,2536
2017-01-23T08:41:28.889Z,2560
2017-01-23T08:42:11.342Z,2580
2017-01-23T08:42:59.320Z,2604
2017-01-23T08:43:43.531Z,2608
2017-01-23T08:44:34.568Z,2636
2017-01-23T08:47:01.813Z,2816
2017-01-23T08:47:50.252Z,2876
2017-01-23T08:50:26.373Z,2992
2017-01-23T08:53:13.857Z,3084
2017-01-23T08:54:03.140Z,3088
2017-01-23T08:54:51.534Z,3096
2017-01-23T08:55:39.477Z,3104
2017-01-23T08:56:24.974Z,3108
2017-01-23T08:57:09.036Z,3076
2017-01-23T08:59:46.636Z,2964
2017-01-23T09:00:35.790Z,2980
2017-01-23T09:01:21.956Z,3044
2017-01-23T09:02:03.550Z,3096
2017-01-23T09:02:44.976Z,3152
2017-01-23T09:03:34.434Z,3216
2017-01-23T09:04:24.668Z,3300
2017-01-23T09:05:12.556Z,3356
2017-01-23T09:05:54.062Z,3380
2017-01-23T09:06:35.581Z,3380
2017-01-23T09:07:16.765Z,3392
2017-01-23T09:07:58.661Z,3412
2017-01-23T09:08:39.122Z,3444
2017-01-23T09:09:20.348Z,3480
2017-01-23T09:10:00.887Z,3516
2017-01-23T09:10:42.260Z,3548
2017-01-23T09:11:23.603Z,3588
2017-01-23T09:12:04.149Z,3616
2017-01-23T09:12:45.679Z,3620
2017-01-23T09:13:26.161Z,3632
2017-01-23T09:14:06.655Z,3632
2017-01-23T09:14:47.197Z,3656
2017-01-23T09:15:27.877Z,3692
2017-01-23T09:16:08.456Z,3724
2017-01-23T09:18:26.957Z,3704
2017-01-23T09:19:06.908Z,3636
2017-01-23T09:19:47.402Z,3596
2017-01-23T09:20:27.904Z,3564
2017-01-23T09:21:08.608Z,3520
2017-01-23T09:21:49.277Z,3432
2017-01-23T09:22:31.161Z,3328
2017-01-23T09:23:13.481Z,3284
2017-01-23T09:23:54.786Z,3268
2017-01-23T09:24:41.653Z,3248
2017-01-23T09:25:23.934Z,3244
2017-01-23T09:26:09.193Z,3216
2017-01-23T09:26:56.106Z,3156
2017-01-23T09:27:38.136Z,3096
2017-01-23T09:28:20.201Z,3008
2017-01-23T09:29:06.247Z,2936
2017-01-23T09:29:47.633Z,2888
2017-01-23T09:30:29.061Z,2860
2017-01-23T09:31:09.933Z,2796
2017-01-23T09:31:54.634Z,2736
2017-01-23T09:32:38.717Z,2700
2017-01-23T09:33:25.605Z,2668
2017-01-23T09:34:09.611Z,2648
2017-01-23T09:34:54.718Z,2660
2017-01-23T09:35:50.614Z,2668
2017-01-23T09:36:31.133Z,2708
2017-01-23T09:37:14.488Z,2740
2017-01-23T09:37:57.952Z,2764
2017-01-23T09:38:40.615Z,2808
2017-01-23T09:39:21.091Z,2844
2017-01-23T09:40:04.687Z,2900
2017-01-23T09:40:48.610Z,2976
2017-01-23T09:41:31.611Z,3052
2017-01-23T09:42:12.253Z,3132
2017-01-23T09:42:55.106Z,3212
2017-01-23T09:43:37.390Z,3312
2017-01-23T09:44:17.911Z,3424
2017-01-23T09:45:02.878Z,3544
2017-01-23T09:45:46.325Z,3676
2017-01-23T09:46:29.650Z,3816
2017-01-23T09:47:12.107Z,3932
2017-01-23T09:47:52.648Z,3976
2017-01-23T09:48:35.762Z,4012
2017-01-23T09:49:19.126Z,4044
2017-01-23T09:50:18.168Z,4084
2017-01-23T09:51:03.434Z,4124
2017-01-23T09:51:47.658Z,4156
2017-01-23T09:52:30.068Z,4152
2017-01-23T09:53:22.122Z,4184
2017-01-23T09:54:06.152Z,4240
2017-01-23T09:54:46.679Z,4256
2017-01-23T09:55:29.887Z,4260
2017-01-23T09:56:13.152Z,4196
2017-01-23T09:56:55.160Z,4184
2017-01-23T09:57:39.186Z,4272
2017-01-23T09:58:19.906Z,4316
2017-01-23T09:59:00.637Z,4420
2017-01-23T09:59:41.155Z,4440
2017-01-23T10:00:22.469Z,4532
2017-01-23T10:01:02.929Z,4688
2017-01-23T10:01:44.365Z,4832
2017-01-23T10:02:24.847Z,4928
2017-01-23T10:03:05.373Z,4976
2017-01-23T10:03:49.398Z,5028
2017-01-23T10:04:35.310Z,5012
2017-01-23T10:05:17.383Z,4992
2017-01-23T10:06:01.364Z,5056
2017-01-23T10:06:45.537Z,4892
2017-01-23T10:07:39.420Z,4608
2017-01-23T10:08:26.924Z,4632
2017-01-23T10:09:16.070Z,4728
2017-01-23T10:10:03.753Z,4608
2017-01-23T10:10:50.234Z,4560
2017-01-23T10:11:33.789Z,4664
2017-01-23T10:12:16.040Z,4732
2017-01-23T10:16:28.295Z,5220
2017-01-23T10:17:18.867Z,5036
2017-01-23T10:18:04.135Z,4816
2017-01-23T10:18:46.062Z,5388